Time;durP1;ratioP1;P1;durP2;ratioP2;P2;SDS_P1;SDS_P2;PMS_P1;PMS_P2;Temp;Humidity;BMP_temperature;BMP_pressure;BME280_temperature;BME280_humidity;BME280_pressure;Samples;Min_cycle;Max_cycle;Signal;HPM_P1;HPM_P2
2022/07/22 00:00:29;;;;;;;27.88;19.83;;;;;;;;;;6152559;23;20028;-58
2022/07/22 00:02:56;;;;;;;31.70;23.45;;;;;;;;;;6175901;23;20025;-58
2022/07/22 00:05:23;;;;;;;;;;;;;;;;;;6177688;23;20057;-58
2022/07/22 00:07:51;;;;;;;33.28;21.45;;;;;;;;;;6177190;23;19990;-58
2022/07/22 00:10:18;;;;;;;28.20;20.80;;;;;;;;;;6177504;23;20087;-58
2022/07/22 00:12:45;;;;;;;32.92;22.88;;;;;;;;;;6177761;23;20021;-58
2022/07/22 00:15:13;;;;;;;29.98;22.17;;;;;;;;;;6178764;23;20036;-58
2022/07/22 00:17:41;;;;;;;32.00;20.48;;;;;;;;;;6177392;23;20025;-61
2022/07/22 00:20:08;;;;;;;;;;;;;;;;;;6180180;23;20036;-60
2022/07/22 00:22:36;;;;;;;24.83;19.48;;;;;;;;;;6178529;23;20281;-60
2022/07/22 00:25:04;;;;;;;28.35;19.90;;;;;;;;;;6180820;23;20532;-60
2022/07/22 00:27:31;;;;;;;26.75;19.25;;;;;;;;;;6178889;23;20029;-60
2022/07/22 00:29:59;;;;;;;24.13;18.25;;;;;;;;;;6180052;23;20162;-60
2022/07/22 00:32:26;;;;;;;32.30;22.08;;;;;;;;;;6180580;23;20029;-60
2022/07/22 00:34:54;;;;;;;28.98;20.77;;;;;;;;;;6180431;23;20021;-60
2022/07/22 00:37:21;;;;;;;32.10;22.08;;;;;;;;;;6154328;23;20025;-60
2022/07/22 00:39:48;;;;;;;29.48;20.40;;;;;;;;;;6179702;23;20029;-60
2022/07/22 00:42:16;;;;;;;27.77;20.05;;;;;;;;;;6179649;23;20025;-60
2022/07/22 00:44:49;;;;;;;30.63;20.80;;;;;;;;;;6179905;23;20079;-59
2022/07/22 00:47:16;;;;;;;29.50;19.90;;;;;;;;;;6180277;23;20071;-60
2022/07/22 00:49:44;;;;;;;28.08;20.40;;;;;;;;;;6179259;23;20029;-60
2022/07/22 00:52:12;;;;;;;26.38;19.75;;;;;;;;;;6180416;23;20099;-43
2022/07/22 00:54:39;;;;;;;30.25;21.35;;;;;;;;;;6180153;23;20025;-55
2022/07/22 00:57:07;;;;;;;31.17;22.45;;;;;;;;;;6179465;23;20075;-53
2022/07/22 00:59:34;;;;;;;30.73;21.80;;;;;;;;;;6179525;23;20028;-55
2022/07/22 01:02:01;;;;;;;31.75;22.35;;;;;;;;;;6180467;23;20095;-56
2022/07/22 01:04:28;;;;;;;34.28;21.75;;;;;;;;;;6181409;23;20327;-54
2022/07/22 01:06:56;;;;;;;33.80;23.30;;;;;;;;;;6180203;23;20052;-54
2022/07/22 01:09:23;;;;;;;28.30;21.00;;;;;;;;;;6178566;23;20029;-58
2022/07/22 01:11:50;;;;;;;30.98;20.35;;;;;;;;;;6153924;23;20025;-45
2022/07/22 01:14:18;;;;;;;27.60;21.05;;;;;;;;;;6180312;23;20075;-57
2022/07/22 01:16:45;;;;;;;31.60;20.83;;;;;;;;;;6179067;23;20077;-58
2022/07/22 01:19:16;;;;;;;29.00;22.20;;;;;;;;;;6178857;23;20056;-59
2022/07/22 01:21:43;;;;;;;32.50;21.27;;;;;;;;;;6178852;23;20028;-58
2022/07/22 01:24:10;;;;;;;33.47;22.25;;;;;;;;;;6179194;23;20021;-58
2022/07/22 01:26:38;;;;;;;29.38;22.23;;;;;;;;;;6179075;23;20589;-59
2022/07/22 01:29:05;;;;;;;28.30;21.40;;;;;;;;;;6179853;23;20032;-58
2022/07/22 01:31:32;;;;;;;28.15;20.58;;;;;;;;;;6178974;23;20068;-61
2022/07/22 01:34:00;;;;;;;28.95;21.98;;;;;;;;;;6180035;23;20528;-59
2022/07/22 01:36:27;;;;;;;29.52;20.27;;;;;;;;;;6180012;23;20336;-59
2022/07/22 01:38:54;;;;;;;27.95;20.48;;;;;;;;;;6179567;23;20462;-59
2022/07/22 01:41:22;;;;;;;24.17;18.88;;;;;;;;;;6177417;23;20017;-59
2022/07/22 01:43:50;;;;;;;24.63;19.75;;;;;;;;;;6179923;23;20716;-58
2022/07/22 01:46:18;;;;;;;28.05;19.60;;;;;;;;;;6180546;23;20082;-59
2022/07/22 01:48:46;;;;;;;25.05;18.77;;;;;;;;;;6179624;23;20044;-59
2022/07/22 01:51:13;;;;;;;28.48;19.98;;;;;;;;;;6179880;23;20028;-54
2022/07/22 01:53:40;;;;;;;23.85;18.77;;;;;;;;;;6178707;23;20021;-55
2022/07/22 01:56:08;;;;;;;28.35;19.23;;;;;;;;;;6179562;23;20029;-53
2022/07/22 01:58:35;;;;;;;28.20;20.83;;;;;;;;;;6180113;23;20025;-56
2022/07/22 02:01:06;;;;;;;25.23;19.42;;;;;;;;;;6180300;23;20025;-54
2022/07/22 02:03:35;;;;;;;27.73;20.55;;;;;;;;;;6179590;23;20068;-52
2022/07/22 02:06:02;;;;;;;32.17;21.40;;;;;;;;;;6179322;23;20083;-55
2022/07/22 02:08:29;;;;;;;;;;;;;;;;;;6180062;23;20033;-59
2022/07/22 02:10:57;;;;;;;26.30;20.85;;;;;;;;;;6178418;23;19959;-51
2022/07/22 02:13:24;;;;;;;26.00;20.48;;;;;;;;;;6152766;23;20029;-55
2022/07/22 02:15:51;;;;;;;27.88;21.05;;;;;;;;;;6180034;23;20028;-55
2022/07/22 02:18:19;;;;;;;28.92;21.92;;;;;;;;;;6180179;23;20403;-55
2022/07/22 02:20:46;;;;;;;25.88;20.67;;;;;;;;;;6179982;23;20025;-54
2022/07/22 02:23:13;;;;;;;;;;;;;;;;;;6177873;23;20577;-55
2022/07/22 02:25:41;;;;;;;25.58;19.85;;;;;;;;;;6179122;23;19916;-58
2022/07/22 02:28:08;;;;;;;28.23;20.90;;;;;;;;;;6178302;23;20546;-44
2022/07/22 02:30:36;;;;;;;29.90;21.65;;;;;;;;;;6179890;23;20569;-44
2022/07/22 02:33:03;;;;;;;27.23;19.90;;;;;;;;;;6179731;23;20071;-44
2022/07/22 02:35:30;;;;;;;31.60;21.08;;;;;;;;;;6180498;23;20036;-42
2022/07/22 02:37:58;;;;;;;31.60;20.88;;;;;;;;;;6174755;23;20020;-44
2022/07/22 02:40:27;;;;;;;27.20;20.73;;;;;;;;;;6179722;23;20028;-43
2022/07/22 02:42:54;;;;;;;28.85;20.50;;;;;;;;;;6178547;23;20017;-43
2022/07/22 02:45:21;;;;;;;28.55;20.25;;;;;;;;;;6179694;23;20036;-57
2022/07/22 02:47:49;;;;;;;;;;;;;;;;;;6179622;23;20021;-44
2022/07/22 02:50:16;;;;;;;29.83;19.20;;;;;;;;;;6179713;23;20334;-59
2022/07/22 02:52:43;;;;;;;22.52;18.42;;;;;;;;;;6178622;23;20470;-59
2022/07/22 02:55:11;;;;;;;20.05;17.75;;;;;;;;;;6178539;23;20032;-59
2022/07/22 02:57:38;;;;;;;23.77;18.75;;;;;;;;;;6178207;23;20531;-59
2022/07/22 03:00:06;;;;;;;;;;;;;;;;;;6180675;23;20032;-58
2022/07/22 03:02:33;;;;;;;27.65;20.35;;;;;;;;;;6178544;23;20403;-60
2022/07/22 03:05:00;;;;;;;41.88;22.30;;;;;;;;;;6179975;23;20028;-59
2022/07/22 03:07:28;;;;;;;29.92;19.95;;;;;;;;;;6176718;23;20490;-52
2022/07/22 03:09:55;;;;;;;27.02;22.80;;;;;;;;;;6177948;23;20052;-49
2022/07/22 03:12:28;;;;;;;31.60;22.73;;;;;;;;;;6179810;23;20357;-56
2022/07/22 03:14:55;;;;;;;30.70;22.85;;;;;;;;;;6179498;23;20029;-52
2022/07/22 03:17:23;;;;;;;34.90;24.98;;;;;;;;;;6178823;23;20028;-56
2022/07/22 03:19:50;;;;;;;44.53;27.15;;;;;;;;;;6179074;23;20075;-55
2022/07/22 03:22:17;;;;;;;36.55;27.60;;;;;;;;;;6179027;23;20044;-57
2022/07/22 03:24:45;;;;;;;37.95;28.38;;;;;;;;;;6178041;23;20025;-42
2022/07/22 03:27:12;;;;;;;43.70;28.20;;;;;;;;;;6178492;23;20071;-56
2022/07/22 03:29:39;;;;;;;40.63;28.70;;;;;;;;;;6179010;23;20029;-50
2022/07/22 03:32:07;;;;;;;35.47;26.92;;;;;;;;;;6179207;23;20103;-54
2022/07/22 03:34:34;;;;;;;32.50;22.88;;;;;;;;;;6179605;23;20028;-53
2022/07/22 03:37:02;;;;;;;29.73;19.95;;;;;;;;;;6178852;23;20025;-54
2022/07/22 03:39:29;;;;;;;36.22;22.60;;;;;;;;;;6178344;23;20029;-51
2022/07/22 03:41:58;;;;;;;33.70;23.85;;;;;;;;;;6152719;23;20032;-59
2022/07/22 03:44:25;;;;;;;30.02;21.48;;;;;;;;;;6177986;23;20028;-59
2022/07/22 03:46:53;;;;;;;38.08;25.35;;;;;;;;;;6178035;23;20444;-50
2022/07/22 03:49:20;;;;;;;33.35;25.73;;;;;;;;;;6178008;23;20028;-55
2022/07/22 03:51:47;;;;;;;39.30;27.35;;;;;;;;;;6177013;23;20067;-54
2022/07/22 03:54:14;;;;;;;34.50;26.92;;;;;;;;;;6179184;23;20051;-51
2022/07/22 03:56:42;;;;;;;38.05;26.45;;;;;;;;;;6180124;23;20087;-53
2022/07/22 03:59:09;;;;;;;40.30;27.13;;;;;;;;;;6180280;23;20029;-52
2022/07/22 04:01:36;;;;;;;32.05;24.58;;;;;;;;;;6178840;23;20021;-55
2022/07/22 04:04:04;;;;;;;31.90;23.77;;;;;;;;;;6180381;23;20056;-45
2022/07/22 04:06:31;;;;;;;38.20;27.83;;;;;;;;;;6179721;23;20072;-46
2022/07/22 04:08:59;;;;;;;36.72;26.10;;;;;;;;;;6180691;23;20060;-46
2022/07/22 04:11:27;;;;;;;31.83;23.73;;;;;;;;;;6180733;23;20433;-43
2022/07/22 04:13:54;;;;;;;37.05;25.10;;;;;;;;;;6181410;23;20028;-43
2022/07/22 04:16:21;;;;;;;;;;;;;;;;;;6182094;23;20021;-46
2022/07/22 04:18:49;;;;;;;35.65;24.60;;;;;;;;;;6180622;23;19917;-43
2022/07/22 04:21:16;;;;;;;41.13;26.48;;;;;;;;;;6182026;23;20025;-61
2022/07/22 04:23:44;;;;;;;;;;;;;;;;;;6181339;23;20025;-60
2022/07/22 04:26:11;;;;;;;38.42;23.83;;;;;;;;;;6181717;23;19924;-59
2022/07/22 04:28:38;;;;;;;38.72;25.17;;;;;;;;;;6180880;23;20368;-60
2022/07/22 04:31:05;;;;;;;39.40;24.77;;;;;;;;;;6181407;23;20075;-60
2022/07/22 04:33:33;;;;;;;33.20;24.48;;;;;;;;;;6181446;23;20105;-60
2022/07/22 04:36:00;;;;;;;39.58;27.23;;;;;;;;;;6182360;23;20067;-59
2022/07/22 04:38:28;;;;;;;37.95;25.65;;;;;;;;;;6180233;23;20033;-59
2022/07/22 04:40:55;;;;;;;37.67;26.77;;;;;;;;;;6180863;23;20021;-46
2022/07/22 04:43:22;;;;;;;39.88;28.63;;;;;;;;;;6181145;23;20021;-57
2022/07/22 04:45:50;;;;;;;40.05;27.98;;;;;;;;;;6181405;23;20111;-57
2022/07/22 04:48:18;;;;;;;38.78;26.20;;;;;;;;;;6180780;23;20521;-58
2022/07/22 04:50:45;;;;;;;;;;;;;;;;;;6182673;23;20029;-58
2022/07/22 04:53:13;;;;;;;36.78;27.70;;;;;;;;;;6180867;23;19916;-58
2022/07/22 04:55:40;;;;;;;37.95;27.85;;;;;;;;;;6181067;23;20025;-59
2022/07/22 04:58:08;;;;;;;40.72;26.98;;;;;;;;;;6181414;23;20029;-58
2022/07/22 05:00:43;;;;;;;40.45;26.20;;;;;;;;;;6180441;23;20350;-59
2022/07/22 05:03:10;;;;;;;40.78;27.95;;;;;;;;;;6181447;23;20386;-61
2022/07/22 05:05:37;;;;;;;36.10;25.45;;;;;;;;;;6181172;23;20025;-60
2022/07/22 05:08:05;;;;;;;43.33;27.23;;;;;;;;;;6180125;23;20021;-60
2022/07/22 05:10:32;;;;;;;43.67;27.10;;;;;;;;;;6181928;23;20083;-60
2022/07/22 05:13:00;;;;;;;36.55;24.67;;;;;;;;;;6181650;23;20458;-61
2022/07/22 05:15:27;;;;;;;41.30;24.55;;;;;;;;;;6180677;23;20056;-58
2022/07/22 05:17:54;;;;;;;41.63;23.75;;;;;;;;;;6179720;23;20439;-45
2022/07/22 05:20:21;;;;;;;38.10;22.08;;;;;;;;;;6181490;23;20029;-56
2022/07/22 05:22:49;;;;;;;36.60;20.45;;;;;;;;;;6179332;23;20055;-54
2022/07/22 05:25:16;;;;;;;34.10;19.33;;;;;;;;;;6180057;23;20021;-56
2022/07/22 05:27:51;;;;;;;41.42;18.17;;;;;;;;;;6181222;23;20021;-52
2022/07/22 05:30:18;;;;;;;35.65;16.55;;;;;;;;;;6180600;23;20075;-54
2022/07/22 05:32:50;;;;;;;35.83;16.35;;;;;;;;;;6178759;23;20033;-55
2022/07/22 05:35:17;;;;;;;42.78;16.83;;;;;;;;;;6181004;23;20394;-55
2022/07/22 05:37:44;;;;;;;28.65;14.68;;;;;;;;;;6176525;23;20025;-58
2022/07/22 05:40:12;;;;;;;28.75;15.20;;;;;;;;;;6180114;23;20025;-60
2022/07/22 05:42:39;;;;;;;31.65;14.93;;;;;;;;;;6180197;23;20497;-61
2022/07/22 05:45:07;;;;;;;37.20;16.45;;;;;;;;;;6181169;23;20095;-59
2022/07/22 05:47:34;;;;;;;;;;;;;;;;;;6181419;23;20124;-61
2022/07/22 05:50:01;;;;;;;31.17;15.65;;;;;;;;;;6180785;23;19978;-61
2022/07/22 05:52:29;;;;;;;31.27;14.20;;;;;;;;;;6179439;23;20025;-61
2022/07/22 05:54:56;;;;;;;34.22;14.60;;;;;;;;;;6180197;23;20044;-61
2022/07/22 05:57:23;;;;;;;34.38;13.73;;;;;;;;;;6181135;23;20025;-59
2022/07/22 05:59:50;;;;;;;31.33;13.32;;;;;;;;;;6180484;23;20021;-58
2022/07/22 06:02:18;;;;;;;23.15;11.20;;;;;;;;;;6181413;23;20091;-58
2022/07/22 06:04:45;;;;;;;25.58;12.05;;;;;;;;;;6180332;23;20025;-59
2022/07/22 06:07:12;;;;;;;26.52;11.35;;;;;;;;;;6181518;23;20021;-58
2022/07/22 06:09:40;;;;;;;20.65;10.60;;;;;;;;;;6180149;23;20025;-59
2022/07/22 06:12:07;;;;;;;23.45;10.13;;;;;;;;;;6180995;23;20021;-58
2022/07/22 06:14:36;;;;;;;;;;;;;;;;;;6181194;23;20025;-60
2022/07/22 06:17:04;;;;;;;22.48;10.18;;;;;;;;;;6180812;23;19978;-58
2022/07/22 06:19:32;;;;;;;20.33;9.85;;;;;;;;;;6180600;23;20084;-45
2022/07/22 06:21:59;;;;;;;17.90;9.68;;;;;;;;;;6180583;23;20087;-44
2022/07/22 06:24:26;;;;;;;25.90;9.43;;;;;;;;;;6180559;23;20490;-46
2022/07/22 06:26:54;;;;;;;23.85;9.43;;;;;;;;;;6179973;23;20435;-45
2022/07/22 06:29:21;;;;;;;20.23;9.20;;;;;;;;;;6180584;23;20049;-44
2022/07/22 06:31:48;;;;;;;25.35;10.20;;;;;;;;;;6180238;23;20561;-43
2022/07/22 06:34:16;;;;;;;27.10;9.65;;;;;;;;;;6180175;23;20028;-58
2022/07/22 06:36:43;;;;;;;24.25;10.25;;;;;;;;;;6180389;23;20521;-53
2022/07/22 06:39:10;;;;;;;25.02;9.60;;;;;;;;;;6154532;23;20060;-56
2022/07/22 06:41:38;;;;;;;21.38;8.95;;;;;;;;;;6178236;23;20092;-53
2022/07/22 06:44:06;;;;;;;;;;;;;;;;;;6180178;23;20040;-54
2022/07/22 06:46:33;;;;;;;27.65;9.80;;;;;;;;;;6180522;23;19962;-56
2022/07/22 06:49:01;;;;;;;24.33;9.57;;;;;;;;;;6179473;23;20053;-55
2022/07/22 06:51:28;;;;;;;21.40;9.00;;;;;;;;;;6180508;23;20089;-54
2022/07/22 06:53:56;;;;;;;;;;;;;;;;;;6177344;23;20343;-59
2022/07/22 06:56:23;;;;;;;24.33;8.52;;;;;;;;;;6178724;23;20595;-61
2022/07/22 06:58:50;;;;;;;24.83;9.40;;;;;;;;;;6178453;23;20358;-60
2022/07/22 07:01:17;;;;;;;26.58;9.85;;;;;;;;;;6178897;23;20025;-62
2022/07/22 07:03:45;;;;;;;26.88;9.00;;;;;;;;;;6178323;23;20021;-61
2022/07/22 07:06:12;;;;;;;26.73;9.07;;;;;;;;;;6179006;23;20033;-62
2022/07/22 07:08:41;;;;;;;25.50;10.15;;;;;;;;;;6179246;23;20053;-61
2022/07/22 07:11:08;;;;;;;;;;;;;;;;;;6179654;23;20586;-56
2022/07/22 07:13:36;;;;;;;25.17;10.00;;;;;;;;;;6178919;23;19920;-62
2022/07/22 07:16:03;;;;;;;;;;;;;;;;;;6179610;23;20794;-61
2022/07/22 07:18:30;;;;;;;31.20;9.40;;;;;;;;;;6177901;23;19916;-60
2022/07/22 07:20:58;;;;;;;21.70;9.10;;;;;;;;;;6178592;23;20029;-60
2022/07/22 07:23:25;;;;;;;30.60;9.52;;;;;;;;;;6179689;23;20406;-60
2022/07/22 07:25:52;;;;;;;28.98;9.57;;;;;;;;;;6179055;23;20029;-60
2022/07/22 07:28:20;;;;;;;21.23;9.15;;;;;;;;;;6178438;23;20021;-60
2022/07/22 07:30:47;;;;;;;;;;;;;;;;;;6178362;23;20020;-43
2022/07/22 07:33:15;;;;;;;30.35;9.63;;;;;;;;;;6178722;23;19995;-42
2022/07/22 07:35:42;;;;;;;33.40;10.25;;;;;;;;;;6175742;23;20972;-44
2022/07/22 07:38:10;;;;;;;30.83;9.48;;;;;;;;;;6177578;23;20370;-43
2022/07/22 07:40:37;;;;;;;22.83;8.43;;;;;;;;;;6177752;23;20028;-46
2022/07/22 07:43:04;;;;;;;22.60;9.15;;;;;;;;;;6178877;23;20043;-43
2022/07/22 07:45:33;;;;;;;26.45;9.32;;;;;;;;;;6178946;23;20040;-46
2022/07/22 07:48:00;;;;;;;27.45;9.10;;;;;;;;;;6178856;23;20021;-43
2022/07/22 07:50:27;;;;;;;21.30;8.35;;;;;;;;;;6179469;23;20083;-59
2022/07/22 07:52:55;;;;;;;18.95;8.00;;;;;;;;;;6179477;23;20021;-44
2022/07/22 07:55:23;;;;;;;23.92;7.45;;;;;;;;;;6178762;23;20028;-45
2022/07/22 07:57:50;;;;;;;;;;;;;;;;;;6178689;23;20280;-46
2022/07/22 08:00:20;;;;;;;16.80;7.53;;;;;;;;;;6178443;23;19916;-47
2022/07/22 08:02:47;;;;;;;29.17;9.40;;;;;;;;;;6178688;23;20471;-44
2022/07/22 08:05:15;;;;;;;22.65;8.65;;;;;;;;;;6178849;23;20478;-43
2022/07/22 08:07:43;;;;;;;23.20;8.98;;;;;;;;;;6178691;23;20052;-48
2022/07/22 08:10:11;;;;;;;26.95;9.05;;;;;;;;;;6178840;23;20025;-60
2022/07/22 08:12:59;;;;;;;27.60;8.02;;;;;;;;;;6176941;23;20092;-58
2022/07/22 08:15:27;;;;;;;22.40;7.80;;;;;;;;;;6178702;23;20047;-58
2022/07/22 08:17:55;;;;;;;22.73;7.78;;;;;;;;;;6178962;23;20474;-57
2022/07/22 08:20:23;;;;;;;24.85;7.93;;;;;;;;;;6179329;23;20033;-58
2022/07/22 08:22:52;;;;;;;21.90;8.65;;;;;;;;;;6178338;23;20025;-58
2022/07/22 08:25:19;;;;;;;26.33;7.80;;;;;;;;;;6179538;23;20025;-58
2022/07/22 08:27:46;;;;;;;20.80;7.95;;;;;;;;;;6178330;23;20021;-59
2022/07/22 08:30:14;;;;;;;19.60;7.60;;;;;;;;;;6153013;23;20087;-59
2022/07/22 08:32:41;;;;;;;;;;;;;;;;;;6179186;23;20051;-53
2022/07/22 08:35:08;;;;;;;22.63;7.28;;;;;;;;;;6178711;23;19916;-53
2022/07/22 08:37:37;;;;;;;20.67;7.47;;;;;;;;;;6178957;23;20025;-55
2022/07/22 08:40:04;;;;;;;21.05;7.57;;;;;;;;;;6180389;23;20021;-56
2022/07/22 08:42:32;;;;;;;20.67;7.63;;;;;;;;;;6179750;23;20025;-56
2022/07/22 08:44:59;;;;;;;19.75;7.25;;;;;;;;;;6180781;23;20028;-57
2022/07/22 08:47:31;;;;;;;23.52;7.18;;;;;;;;;;6181343;23;20028;-59
2022/07/22 08:50:10;;;;;;;20.85;7.57;;;;;;;;;;6180781;23;20055;-61
2022/07/22 08:52:37;;;;;;;19.45;6.50;;;;;;;;;;6180406;23;20080;-61
2022/07/22 08:55:05;;;;;;;17.35;6.53;;;;;;;;;;6179645;23;20025;-61
2022/07/22 08:57:33;;;;;;;16.92;6.68;;;;;;;;;;6180445;23;20076;-61
2022/07/22 09:00:02;;;;;;;14.10;6.28;;;;;;;;;;6180848;23;20025;-61
2022/07/22 09:02:36;;;;;;;23.65;7.35;;;;;;;;;;6180385;23;20366;-61
2022/07/22 09:05:05;;;;;;;24.55;6.93;;;;;;;;;;6180943;23;20029;-61
2022/07/22 09:07:58;;;;;;;12.82;5.72;;;;;;;;;;6180657;23;20514;-44
2022/07/22 09:10:31;;;;;;;15.95;6.70;;;;;;;;;;6180729;23;20033;-44
2022/07/22 09:12:59;;;;;;;15.57;5.93;;;;;;;;;;6179744;23;20328;-44
2022/07/22 09:15:28;;;;;;;15.70;6.13;;;;;;;;;;6181511;23;20029;-45
2022/07/22 09:17:56;;;;;;;17.50;6.03;;;;;;;;;;6180877;23;20071;-43
2022/07/22 09:20:30;;;;;;;11.68;6.00;;;;;;;;;;6181303;23;20031;-44
2022/07/22 09:22:58;;;;;;;18.10;6.57;;;;;;;;;;6181402;23;20029;-46
2022/07/22 09:25:30;;;;;;;16.45;6.32;;;;;;;;;;6180591;23;20025;-56
2022/07/22 09:28:06;;;;;;;17.20;6.53;;;;;;;;;;6180206;23;20025;-60
2022/07/22 09:30:45;;;;;;;13.63;6.05;;;;;;;;;;6179619;23;20025;-56
2022/07/22 09:33:14;;;;;;;12.87;6.00;;;;;;;;;;6153613;23;20422;-55
2022/07/22 09:35:41;;;;;;;20.33;6.07;;;;;;;;;;6180591;23;20051;-54
2022/07/22 09:38:16;;;;;;;19.35;6.18;;;;;;;;;;6180259;23;20043;-55
2022/07/22 09:40:45;;;;;;;10.98;5.90;;;;;;;;;;6178983;23;20344;-55
2022/07/22 09:43:14;;;;;;;13.77;5.68;;;;;;;;;;6180411;23;20057;-53
2022/07/22 09:45:47;;;;;;;11.50;5.60;;;;;;;;;;6180097;23;20086;-48
2022/07/22 09:48:17;;;;;;;9.57;4.38;;;;;;;;;;6153878;23;20096;-60
2022/07/22 09:50:44;;;;;;;9.30;4.28;;;;;;;;;;6180185;23;20060;-59
2022/07/22 09:53:11;;;;;;;;;;;;;;;;;;6179590;23;20091;-59
2022/07/22 09:55:40;;;;;;;9.15;4.32;;;;;;;;;;6179526;23;19927;-60
2022/07/22 09:58:11;;;;;;;7.15;3.85;;;;;;;;;;6179271;23;20025;-59
2022/07/22 10:00:39;;;;;;;5.28;3.15;;;;;;;;;;6179098;23;20033;-60
2022/07/22 10:03:07;;;;;;;5.28;2.97;;;;;;;;;;6180620;23;20092;-58
2022/07/22 10:05:37;;;;;;;7.72;3.15;;;;;;;;;;6180036;23;20067;-58
2022/07/22 10:08:05;;;;;;;4.82;2.80;;;;;;;;;;6179508;23;20091;-55
2022/07/22 10:10:33;;;;;;;6.70;3.10;;;;;;;;;;6179684;23;20072;-57
2022/07/22 10:13:01;;;;;;;7.10;3.60;;;;;;;;;;6179720;23;20017;-56
2022/07/22 10:15:30;;;;;;;5.30;3.70;;;;;;;;;;6180404;23;20380;-53
2022/07/22 10:18:06;;;;;;;10.05;3.35;;;;;;;;;;6155181;23;20021;-57
2022/07/22 10:20:34;;;;;;;5.47;3.10;;;;;;;;;;6179298;23;20036;-58
2022/07/22 10:23:09;;;;;;;6.00;3.20;;;;;;;;;;6180635;23;20083;-57
2022/07/22 10:25:58;;;;;;;8.68;3.90;;;;;;;;;;6179481;23;20021;-61
2022/07/22 10:28:27;;;;;;;5.72;3.45;;;;;;;;;;6179625;23;20043;-61
2022/07/22 10:31:14;;;;;;;7.72;4.13;;;;;;;;;;6180128;23;20061;-61
2022/07/22 10:33:42;;;;;;;6.50;3.72;;;;;;;;;;6180811;23;20091;-61
2022/07/22 10:36:09;;;;;;;8.77;3.70;;;;;;;;;;6179233;23;20072;-61
2022/07/22 10:38:37;;;;;;;9.77;3.70;;;;;;;;;;6179441;23;20021;-61
2022/07/22 10:41:07;;;;;;;9.05;3.35;;;;;;;;;;6178978;23;20028;-59
2022/07/22 10:43:43;;;;;;;7.43;3.60;;;;;;;;;;6178891;23;20458;-58
2022/07/22 10:46:11;;;;;;;6.00;3.50;;;;;;;;;;6179423;23;20359;-60
2022/07/22 10:48:38;;;;;;;;;;;;;;;;;;6179645;23;20071;-60
2022/07/22 10:51:13;;;;;;;6.10;3.35;;;;;;;;;;6179820;23;19967;-60
2022/07/22 10:53:43;;;;;;;7.13;3.42;;;;;;;;;;6177520;23;20048;-60
2022/07/22 10:56:15;;;;;;;5.97;3.20;;;;;;;;;;6179614;23;20021;-59
2022/07/22 10:58:44;;;;;;;5.60;3.25;;;;;;;;;;6180569;23;20025;-59
2022/07/22 11:01:13;;;;;;;5.38;3.40;;;;;;;;;;6179225;23;20024;-59
2022/07/22 11:03:41;;;;;;;6.07;2.78;;;;;;;;;;6179371;23;20025;-60
2022/07/22 11:06:15;;;;;;;4.15;2.65;;;;;;;;;;6179729;23;20048;-59
2022/07/22 11:08:43;;;;;;;8.95;3.28;;;;;;;;;;6178578;23;20049;-60
2022/07/22 11:11:10;;;;;;;7.32;3.13;;;;;;;;;;6178879;23;20095;-60
2022/07/22 11:13:40;;;;;;;4.85;2.95;;;;;;;;;;6179628;23;20055;-60
2022/07/22 11:16:20;;;;;;;8.82;3.38;;;;;;;;;;6178170;23;20340;-59
2022/07/22 11:18:53;;;;;;;9.13;3.30;;;;;;;;;;6179058;23;20028;-60
2022/07/22 11:21:22;;;;;;;6.65;3.10;;;;;;;;;;6180531;23;20024;-58
2022/07/22 11:23:52;;;;;;;7.55;3.13;;;;;;;;;;6180512;23;20021;-43
2022/07/22 11:26:22;;;;;;;4.90;3.10;;;;;;;;;;6179968;23;20406;-47
2022/07/22 11:28:49;;;;;;;6.38;3.03;;;;;;;;;;6178894;23;20024;-43
2022/07/22 11:31:18;;;;;;;7.38;3.95;;;;;;;;;;6180000;23;20056;-45
2022/07/22 11:33:45;;;;;;;6.35;3.45;;;;;;;;;;6179515;23;20025;-47
2022/07/22 11:36:13;;;;;;;7.05;3.15;;;;;;;;;;6180632;23;20079;-44
2022/07/22 11:38:45;;;;;;;8.70;4.25;;;;;;;;;;6177665;23;20025;-61
2022/07/22 11:41:19;;;;;;;7.50;3.85;;;;;;;;;;6178521;23;20108;-58
2022/07/22 11:43:49;;;;;;;10.27;3.75;;;;;;;;;;6177680;23;20025;-58
2022/07/22 11:46:17;;;;;;;10.93;3.70;;;;;;;;;;6178029;23;20021;-58
2022/07/22 11:48:45;;;;;;;10.95;3.88;;;;;;;;;;6178750;23;20075;-58
2022/07/22 11:51:14;;;;;;;11.55;4.07;;;;;;;;;;6178091;23;20029;-58
2022/07/22 11:53:47;;;;;;;5.88;3.78;;;;;;;;;;6179264;23;20029;-58
2022/07/22 11:56:14;;;;;;;;;;;;;;;;;;6152700;23;20029;-59
2022/07/22 11:58:46;;;;;;;8.93;3.97;;;;;;;;;;6179076;23;19916;-58
2022/07/22 12:01:14;;;;;;;10.63;4.50;;;;;;;;;;6177648;23;20074;-46
2022/07/22 12:03:45;;;;;;;13.45;4.35;;;;;;;;;;6177951;23;20025;-49
2022/07/22 12:06:14;;;;;;;8.80;3.80;;;;;;;;;;6179323;23;20035;-49
2022/07/22 12:08:42;;;;;;;8.20;3.33;;;;;;;;;;6178990;23;20741;-45
2022/07/22 12:11:15;;;;;;;8.93;3.15;;;;;;;;;;6178873;23;20025;-46
2022/07/22 12:13:43;;;;;;;7.30;3.33;;;;;;;;;;6179531;23;20021;-45
2022/07/22 12:16:21;;;;;;;10.15;3.42;;;;;;;;;;6179938;23;20036;-58
2022/07/22 12:18:53;;;;;;;9.50;2.78;;;;;;;;;;6180535;23;20032;-59
2022/07/22 12:21:21;;;;;;;8.13;3.30;;;;;;;;;;6181753;23;20021;-49
2022/07/22 12:23:48;;;;;;;;;;;;;;;;;;6181295;23;20081;-45
2022/07/22 12:26:15;;;;;;;10.95;3.65;;;;;;;;;;6180418;23;20334;-48
2022/07/22 12:28:43;;;;;;;7.15;3.88;;;;;;;;;;6179133;23;20048;-47
2022/07/22 12:31:10;;;;;;;11.57;4.10;;;;;;;;;;6178687;23;20025;-46
2022/07/22 12:33:37;;;;;;;;;;;;;;;;;;6179462;23;20386;-44
2022/07/22 12:36:06;;;;;;;12.82;4.70;;;;;;;;;;6181642;23;20047;-46
2022/07/22 12:38:34;;;;;;;12.55;3.95;;;;;;;;;;6180581;23;20025;-57
2022/07/22 12:41:20;;;;;;;13.25;4.25;;;;;;;;;;6182064;23;20027;-56
2022/07/22 12:43:48;;;;;;;13.73;5.13;;;;;;;;;;6180917;23;20029;-56
2022/07/22 12:46:16;;;;;;;13.25;4.07;;;;;;;;;;6180878;23;20021;-56
2022/07/22 12:48:54;;;;;;;13.85;4.93;;;;;;;;;;6181064;23;20483;-56
2022/07/22 12:52:04;;;;;;;15.50;4.85;;;;;;;;;;6176040;23;20579;-56
2022/07/22 12:54:32;;;;;;;13.57;4.82;;;;;;;;;;6179111;23;20025;-60
2022/07/22 12:56:59;;;;;;;16.65;5.28;;;;;;;;;;6180169;23;20028;-58
2022/07/22 12:59:26;;;;;;;16.05;4.90;;;;;;;;;;6180334;23;20028;-61
2022/07/22 13:01:54;;;;;;;22.67;5.38;;;;;;;;;;6179759;23;20521;-62
2022/07/22 13:04:21;;;;;;;14.05;5.03;;;;;;;;;;6179731;23;20041;-62
2022/07/22 13:06:48;;;;;;;13.38;4.35;;;;;;;;;;6180200;23;20068;-61
2022/07/22 13:09:16;;;;;;;;;;;;;;;;;;6180385;23;20080;-62
2022/07/22 13:11:44;;;;;;;18.65;5.75;;;;;;;;;;6180388;23;19916;-61
2022/07/22 13:14:14;;;;;;;24.13;5.40;;;;;;;;;;6179685;23;20358;-59
2022/07/22 13:16:41;;;;;;;16.25;5.53;;;;;;;;;;6180413;23;20021;-60
2022/07/22 13:19:08;;;;;;;31.02;7.63;;;;;;;;;;6176885;23;20048;-61
2022/07/22 13:21:36;;;;;;;21.00;5.80;;;;;;;;;;6179280;23;20028;-61
2022/07/22 13:24:03;;;;;;;17.85;5.38;;;;;;;;;;6179201;23;20021;-61
2022/07/22 13:26:31;;;;;;;19.77;6.10;;;;;;;;;;6179463;23;20056;-61
2022/07/22 13:28:58;;;;;;;;;;;;;;;;;;6179245;23;20033;-60
2022/07/22 13:31:26;;;;;;;21.85;5.63;;;;;;;;;;6178463;23;19943;-60
2022/07/22 13:33:54;;;;;;;22.02;6.32;;;;;;;;;;6177313;23;20379;-56
2022/07/22 13:36:22;;;;;;;24.98;6.28;;;;;;;;;;6179548;23;20494;-45
2022/07/22 13:38:51;;;;;;;19.52;5.43;;;;;;;;;;6179224;23;20017;-46
2022/07/22 13:41:18;;;;;;;21.08;5.70;;;;;;;;;;6176809;23;20029;-42
2022/07/22 13:43:46;;;;;;;17.48;5.70;;;;;;;;;;6176904;23;20079;-45
2022/07/22 13:46:13;;;;;;;23.20;6.18;;;;;;;;;;6178914;23;20048;-46
2022/07/22 13:48:41;;;;;;;16.55;5.38;;;;;;;;;;6178282;23;20354;-49
2022/07/22 13:51:08;;;;;;;27.02;6.40;;;;;;;;;;6180185;23;20025;-58
2022/07/22 13:53:35;;;;;;;17.98;5.75;;;;;;;;;;6178192;23;20029;-46
2022/07/22 13:56:03;;;;;;;20.52;6.13;;;;;;;;;;6179678;23;20423;-61
2022/07/22 13:58:30;;;;;;;;;;;;;;;;;;6179286;23;20036;-61
2022/07/22 14:00:57;;;;;;;21.20;6.22;;;;;;;;;;6179201;23;19920;-60
2022/07/22 14:03:25;;;;;;;20.30;6.47;;;;;;;;;;6178593;23;20025;-60
2022/07/22 14:05:52;;;;;;;20.27;6.05;;;;;;;;;;6176890;23;20071;-61
2022/07/22 14:08:19;;;;;;;23.92;6.70;;;;;;;;;;6178257;23;20025;-61
2022/07/22 14:10:46;;;;;;;17.27;5.75;;;;;;;;;;6179530;23;20040;-60
2022/07/22 14:13:14;;;;;;;;;;;;;;;;;;6153442;23;20024;-62
2022/07/22 14:15:41;;;;;;;19.10;5.63;;;;;;;;;;6178724;23;19917;-48
2022/07/22 14:18:08;;;;;;;16.38;5.30;;;;;;;;;;6179579;23;20028;-48
2022/07/22 14:20:36;;;;;;;20.88;6.15;;;;;;;;;;6177919;23;20386;-46
2022/07/22 14:23:05;;;;;;;21.73;6.60;;;;;;;;;;6178338;23;20022;-49
2022/07/22 14:25:32;;;;;;;16.20;5.85;;;;;;;;;;6179655;23;20025;-46
2022/07/22 14:27:59;;;;;;;;;;;;;;;;;;6179577;23;20083;-46
2022/07/22 14:30:47;;;;;;;18.63;5.55;;;;;;;;;;6177362;23;19942;-58
2022/07/22 14:33:14;;;;;;;17.38;5.30;;;;;;;;;;6178828;23;20091;-48
2022/07/22 14:35:41;;;;;;;21.58;5.30;;;;;;;;;;6177684;23;20021;-48
2022/07/22 14:38:09;;;;;;;18.38;5.32;;;;;;;;;;6179057;23;20024;-51
2022/07/22 14:40:36;;;;;;;21.52;5.75;;;;;;;;;;6178922;23;20021;-47
2022/07/22 14:43:05;;;;;;;20.85;5.38;;;;;;;;;;6177694;23;20032;-47